Time;durP1;ratioP1;P1;durP2;ratioP2;P2;SDS_P1;SDS_P2;PMS_P1;PMS_P2;Temp;Humidity;BMP_temperature;BMP_pressure;BME280_temperature;BME280_humidity;BME280_pressure;Samples;Min_cycle;Max_cycle;Signal;HPM_P1;HPM_P2
2022/04/05 00:00:41;;;;;;;12.32;1.48;;;7.00;99.90;;;;;;5064169;28;20037;-70
2022/04/05 00:03:07;;;;;;;8.57;1.60;;;6.90;99.90;;;;;;5068093;28;20427;-70
2022/04/05 00:05:32;;;;;;;9.35;1.38;;;6.80;99.90;;;;;;5047757;28;20538;-69
2022/04/05 00:07:58;;;;;;;13.68;1.58;;;6.80;99.90;;;;;;5051248;28;20119;-70
2022/04/05 00:10:24;;;;;;;14.70;2.05;;;6.80;99.90;;;;;;5069316;28;20041;-69
2022/04/05 00:12:50;;;;;;;15.50;1.80;;;6.80;99.90;;;;;;5066855;28;20032;-69
2022/04/05 00:15:16;;;;;;;8.25;1.58;;;6.80;99.90;;;;;;5062876;28;20060;-70
2022/04/05 00:17:41;;;;;;;12.25;1.52;;;6.80;99.90;;;;;;5064460;28;20105;-69
2022/04/05 00:20:08;;;;;;;12.05;1.60;;;6.80;99.90;;;;;;5068921;28;20045;-69
2022/04/05 00:22:34;;;;;;;12.82;1.25;;;6.80;99.90;;;;;;5068729;28;20488;-70
2022/04/05 00:25:00;;;;;;;11.35;1.40;;;6.80;99.90;;;;;;5069194;28;20041;-69
2022/04/05 00:27:26;;;;;;;9.85;1.33;;;6.70;99.90;;;;;;5068716;28;20051;-70
2022/04/05 00:29:52;;;;;;;9.98;1.20;;;6.80;99.90;;;;;;5067895;28;20068;-69
2022/04/05 00:32:17;;;;;;;11.77;1.60;;;6.70;99.90;;;;;;5068399;28;20827;-70
2022/04/05 00:34:43;;;;;;;14.43;1.77;;;6.80;99.90;;;;;;5065686;28;20044;-69
2022/04/05 00:37:09;;;;;;;10.07;1.30;;;6.70;99.90;;;;;;5069545;28;20091;-70
2022/04/05 00:39:35;;;;;;;10.20;1.85;;;6.70;99.90;;;;;;5069748;28;20045;-70
2022/04/05 00:42:01;;;;;;;12.93;1.50;;;6.70;99.90;;;;;;5065412;28;20174;-71
2022/04/05 00:44:26;;;;;;;8.93;1.30;;;6.70;99.90;;;;;;5048262;28;20559;-70
2022/04/05 00:46:54;;;;;;;11.02;1.65;;;6.70;99.90;;;;;;5066124;28;20519;-70
2022/04/05 00:49:40;;;;;;;7.82;1.20;;;6.70;99.90;;;;;;5066850;28;20044;-78
2022/04/05 00:52:06;;;;;;;12.15;1.40;;;6.70;99.90;;;;;;5068315;28;20051;-77
2022/04/05 00:54:35;;;;;;;7.25;1.25;;;6.60;99.90;;;;;;5068218;28;20056;-78
2022/04/05 00:57:03;;;;;;;18.15;2.22;;;6.70;99.90;;;;;;5066727;28;20048;-77
2022/04/05 00:59:32;;;;;;;10.30;1.40;;;6.70;99.90;;;;;;5067802;28;20048;-78
2022/04/05 01:02:00;;;;;;;10.63;1.90;;;6.60;99.90;;;;;;5066879;28;20266;-78
2022/04/05 01:04:28;;;;;;;11.82;1.63;;;6.60;99.90;;;;;;5059716;28;20483;-78
2022/04/05 01:06:54;;;;;;;14.75;2.47;;;6.70;99.90;;;;;;5066931;28;20083;-77
2022/04/05 01:09:21;;;;;;;13.50;1.67;;;6.60;99.90;;;;;;5068605;28;20392;-78
2022/04/05 01:11:47;;;;;;;14.93;1.70;;;6.60;99.90;;;;;;5067091;28;20041;-79
2022/04/05 01:14:12;;;;;;;15.63;1.67;;;6.70;99.90;;;;;;5050019;28;20083;-79
2022/04/05 01:16:39;;;;;;;14.32;1.55;;;6.60;99.90;;;;;;5050347;28;20080;-78
2022/04/05 01:19:06;;;;;;;13.77;1.83;;;6.70;99.90;;;;;;5066225;28;20045;-78
2022/04/05 01:21:34;;;;;;;15.52;1.60;;;6.60;99.90;;;;;;5068435;28;20032;-77
2022/04/05 01:24:09;;;;;;;9.10;1.77;;;6.60;99.90;;;;;;5055121;28;20052;-78
2022/04/05 01:26:47;;;;;;;12.50;1.63;;;6.60;99.90;;;;;;5066991;28;20052;-78
2022/04/05 01:29:14;;;;;;;10.27;1.42;;;6.60;99.90;;;;;;5068983;28;20393;-79
2022/04/05 01:31:45;;;;;;;21.92;2.22;;;6.60;99.90;;;;;;5069766;28;20080;-78
2022/04/05 01:34:13;;;;;;;11.88;1.40;;;6.60;99.90;;;;;;5068419;28;20052;-78
2022/04/05 01:36:49;;;;;;;8.48;1.52;;;6.60;99.90;;;;;;5050984;28;20052;-79
2022/04/05 01:39:15;;;;;;;11.65;1.38;;;6.70;99.90;;;;;;5050049;28;20032;-78
2022/04/05 01:41:41;;;;;;;9.98;1.60;;;6.60;99.90;;;;;;5067586;28;20093;-78
2022/04/05 01:44:09;;;;;;;11.75;1.83;;;6.60;99.90;;;;;;5062360;28;20127;-78
2022/04/05 01:46:38;;;;;;;20.33;3.13;;;6.70;99.90;;;;;;5063213;28;20555;-78
2022/04/05 01:49:09;;;;;;;11.18;1.70;;;6.70;99.90;;;;;;5066787;28;20048;-78
2022/04/05 01:51:37;;;;;;;8.48;1.70;;;6.70;99.90;;;;;;5050887;28;20040;-78
2022/04/05 01:54:14;;;;;;;11.43;1.73;;;6.70;99.90;;;;;;5063498;28;20206;-80
2022/04/05 01:56:42;;;;;;;15.48;2.08;;;6.60;99.90;;;;;;5066797;28;20071;-78
2022/04/05 01:59:09;;;;;;;14.38;2.00;;;6.70;99.90;;;;;;5078406;28;20599;-78
2022/04/05 02:01:38;;;;;;;25.17;2.70;;;6.70;99.90;;;;;;5059015;28;20040;-78
2022/04/05 02:04:04;;;;;;;15.43;2.33;;;6.70;99.90;;;;;;5059902;28;20045;-78
2022/04/05 02:06:33;;;;;;;17.30;2.22;;;6.70;99.90;;;;;;5066994;28;20512;-78
2022/04/05 02:08:58;;;;;;;19.20;2.10;;;6.70;99.90;;;;;;5038422;28;20041;-78
2022/04/05 02:11:24;;;;;;;21.08;2.25;;;6.70;99.90;;;;;;5059191;28;20044;-70
2022/04/05 02:13:50;;;;;;;20.77;2.33;;;6.70;99.90;;;;;;5044584;28;20040;-70
2022/04/05 02:16:15;;;;;;;18.98;2.35;;;6.70;99.90;;;;;;5045230;28;20169;-70
2022/04/05 02:18:41;;;;;;;14.32;2.58;;;6.70;99.90;;;;;;5065438;28;20512;-70
2022/04/05 02:21:07;;;;;;;20.05;2.45;;;6.70;99.90;;;;;;5058636;28;20149;-70
2022/04/05 02:23:33;;;;;;;12.27;2.13;;;6.70;99.90;;;;;;5059912;28;20062;-70
2022/04/05 02:25:59;;;;;;;16.83;2.10;;;6.70;99.90;;;;;;5061588;28;20037;-70
2022/04/05 02:28:25;;;;;;;20.95;2.30;;;6.80;99.90;;;;;;5031074;28;20314;-70
2022/04/05 02:30:51;;;;;;;17.83;2.63;;;6.70;99.90;;;;;;5063595;28;20041;-70
2022/04/05 02:33:17;;;;;;;20.25;2.40;;;6.70;99.90;;;;;;5064436;28;20040;-70
2022/04/05 02:35:43;;;;;;;20.90;2.50;;;6.70;99.90;;;;;;5060250;28;20505;-70
2022/04/05 02:38:10;;;;;;;22.08;3.08;;;6.70;99.90;;;;;;5060370;28;20052;-69
2022/04/05 02:40:36;;;;;;;16.05;2.65;;;6.70;99.90;;;;;;5067895;28;20062;-70
2022/04/05 02:43:03;;;;;;;22.70;2.35;;;6.70;99.90;;;;;;5055149;28;20053;-70
2022/04/05 02:45:30;;;;;;;19.27;2.90;;;7.30;99.90;;;;;;5044989;28;20116;-69
2022/04/05 02:47:56;;;;;;;21.83;1.98;;;6.70;99.90;;;;;;5059962;28;20052;-70
2022/04/05 02:50:22;;;;;;;27.17;3.42;;;6.70;99.90;;;;;;5068469;28;20049;-70
2022/04/05 02:52:49;;;;;;;21.83;2.72;;;6.70;99.90;;;;;;5076964;28;20378;-69
2022/04/05 02:55:15;;;;;;;22.45;2.65;;;6.70;99.90;;;;;;5061915;28;20564;-70
2022/04/05 02:57:43;;;;;;;25.98;2.80;;;6.70;99.90;;;;;;5048823;28;20419;-70
2022/04/05 03:00:11;;;;;;;25.73;3.35;;;6.70;99.90;;;;;;5062191;28;20055;-69
2022/04/05 03:02:38;;;;;;;20.38;3.08;;;6.70;99.90;;;;;;5052548;28;20044;-70
2022/04/05 03:05:07;;;;;;;26.95;3.33;;;6.70;99.90;;;;;;5059825;28;20091;-70
2022/04/05 03:07:37;;;;;;;31.75;4.00;;;6.70;99.90;;;;;;5044303;28;20051;-70
2022/04/05 03:10:09;;;;;;;24.40;3.85;;;6.70;99.90;;;;;;5045097;28;20086;-70
2022/04/05 03:12:35;;;;;;;;;;;6.70;99.90;;;;;;5044925;28;20097;-70
2022/04/05 03:15:09;;;;;;;20.27;3.40;;;6.70;99.90;;;;;;5061174;28;19967;-68
2022/04/05 03:17:40;;;;;;;15.98;2.85;;;6.70;99.90;;;;;;5060258;28;20059;-69
2022/04/05 03:20:07;;;;;;;25.50;2.65;;;6.70;99.90;;;;;;5060328;28;20048;-69
2022/04/05 03:22:32;;;;;;;15.43;2.20;;;6.70;99.90;;;;;;5062730;28;20041;-69
2022/04/05 03:24:58;;;;;;;19.45;2.78;;;6.70;99.90;;;;;;5063584;28;20047;-69
2022/04/05 03:27:24;;;;;;;22.17;2.60;;;6.70;99.90;;;;;;5065180;28;20194;-69
2022/04/05 03:29:49;;;;;;;18.48;2.25;;;6.60;99.90;;;;;;5064109;28;20043;-70
2022/04/05 03:32:15;;;;;;;15.63;2.03;;;6.80;99.90;;;;;;5065744;28;20044;-70
2022/04/05 03:34:41;;;;;;;21.52;2.75;;;6.60;99.90;;;;;;5051360;28;20072;-70
2022/04/05 03:37:07;;;;;;;24.75;2.60;;;6.60;99.90;;;;;;5048429;28;20120;-69
2022/04/05 03:39:33;;;;;;;24.83;2.88;;;6.60;99.90;;;;;;5058577;28;20040;-70
2022/04/05 03:41:59;;;;;;;21.05;2.72;;;6.60;99.90;;;;;;5064960;28;20037;-69
2022/04/05 03:44:26;;;;;;;18.48;1.80;;;6.60;99.90;;;;;;5065002;28;20613;-70
2022/04/05 03:46:52;;;;;;;20.23;2.22;;;6.60;99.90;;;;;;5057599;28;20150;-70
2022/04/05 03:49:18;;;;;;;19.55;3.08;;;6.60;99.90;;;;;;5047450;28;20088;-70
2022/04/05 03:51:45;;;;;;;20.98;2.47;;;6.50;99.90;;;;;;5055620;28;20043;-70
2022/04/05 03:54:10;;;;;;;25.15;3.33;;;6.50;99.90;;;;;;5060437;28;20045;-69
2022/04/05 03:56:36;;;;;;;20.58;2.55;;;6.50;99.90;;;;;;5063171;28;20048;-69
2022/04/05 03:59:02;;;;;;;22.90;2.63;;;6.60;99.90;;;;;;5061118;28;20404;-69
2022/04/05 04:01:28;;;;;;;19.23;2.05;;;6.50;99.90;;;;;;5061920;28;20572;-69
2022/04/05 04:03:53;;;;;;;18.70;2.05;;;6.50;99.90;;;;;;5065228;28;20048;-70
2022/04/05 04:06:19;;;;;;;19.52;2.67;;;6.50;99.90;;;;;;5067974;28;20040;-69
2022/04/05 04:08:45;;;;;;;21.52;2.15;;;6.50;99.90;;;;;;5067098;28;20527;-69
2022/04/05 04:11:10;;;;;;;20.65;2.60;;;6.50;99.90;;;;;;5060997;28;20040;-69
2022/04/05 04:13:36;;;;;;;26.48;3.22;;;6.50;99.90;;;;;;5049244;28;20263;-69
2022/04/05 04:16:03;;;;;;;29.23;2.83;;;6.50;99.90;;;;;;5046266;28;20049;-69
2022/04/05 04:18:30;;;;;;;30.27;2.58;;;6.50;99.90;;;;;;5044068;28;20072;-70
2022/04/05 04:20:56;;;;;;;23.50;3.45;;;6.50;99.90;;;;;;5049217;28;20048;-69
2022/04/05 04:23:21;;;;;;;26.15;2.85;;;6.50;99.90;;;;;;5061031;28;20106;-69
2022/04/05 04:25:47;;;;;;;22.35;2.88;;;6.50;99.90;;;;;;5052394;28;20044;-69
2022/04/05 04:28:13;;;;;;;25.50;2.90;;;6.50;99.90;;;;;;5059500;28;20053;-70
2022/04/05 04:30:39;;;;;;;18.90;2.10;;;6.50;99.90;;;;;;5065256;28;20066;-70
2022/04/05 04:33:05;;;;;;;17.67;1.90;;;6.50;99.90;;;;;;5064917;28;20037;-70
2022/04/05 04:35:32;;;;;;;16.77;2.78;;;6.50;99.90;;;;;;5052306;28;20040;-69
2022/04/05 04:38:01;;;;;;;14.43;1.77;;;6.50;99.90;;;;;;5064004;28;20049;-70
2022/04/05 04:40:27;;;;;;;27.67;2.30;;;6.40;99.90;;;;;;5043752;28;20406;-69
2022/04/05 04:42:52;;;;;;;20.27;2.25;;;6.40;99.90;;;;;;5066481;28;20047;-69
2022/04/05 04:45:18;;;;;;;17.85;2.65;;;6.40;99.90;;;;;;5063177;28;20253;-69
2022/04/05 04:47:44;;;;;;;16.95;1.92;;;6.40;99.90;;;;;;5065502;28;20044;-69
2022/04/05 04:50:13;;;;;;;15.38;2.30;;;6.30;99.90;;;;;;5045145;28;20072;-70
2022/04/05 04:52:39;;;;;;;22.05;3.08;;;6.30;99.90;;;;;;5065455;28;20047;-70
2022/04/05 04:55:06;;;;;;;15.13;1.88;;;6.30;99.90;;;;;;5066226;28;20041;-70
2022/04/05 04:57:32;;;;;;;18.05;2.60;;;6.30;99.90;;;;;;5063245;28;20098;-70
2022/04/05 04:59:59;;;;;;;14.32;2.00;;;6.30;99.90;;;;;;5059530;28;20098;-69
2022/04/05 05:02:24;;;;;;;13.38;2.00;;;6.30;99.90;;;;;;5059710;28;20382;-70
2022/04/05 05:04:51;;;;;;;21.63;2.58;;;6.30;99.90;;;;;;5045349;28;20259;-70
2022/04/05 05:07:16;;;;;;;19.15;2.45;;;6.30;99.90;;;;;;5064838;28;20041;-70
2022/04/05 05:09:43;;;;;;;21.73;2.33;;;6.30;99.90;;;;;;5049598;28;20039;-70
2022/04/05 05:12:12;;;;;;;14.32;2.28;;;6.30;99.90;;;;;;5056713;28;20043;-70
2022/04/05 05:14:39;;;;;;;16.77;2.42;;;6.30;99.90;;;;;;5043929;28;20048;-70
2022/04/05 05:17:08;;;;;;;14.02;2.67;;;6.30;99.90;;;;;;5043825;28;20127;-70
2022/04/05 05:19:33;;;;;;;15.60;2.22;;;6.30;99.90;;;;;;5068848;28;20048;-70
2022/04/05 05:21:59;;;;;;;13.02;2.20;;;6.30;99.90;;;;;;5075545;28;20040;-70
2022/04/05 05:24:25;;;;;;;9.70;2.33;;;6.40;99.90;;;;;;5073664;28;20073;-70
2022/04/05 05:26:50;;;;;;;17.35;2.55;;;6.40;99.90;;;;;;5075370;28;20051;-70
2022/04/05 05:29:17;;;;;;;23.63;3.17;;;6.60;99.90;;;;;;5072018;28;20473;-70
2022/04/05 05:31:43;;;;;;;21.25;3.00;;;6.40;99.90;;;;;;5074380;28;20127;-69
2022/04/05 05:34:08;;;;;;;15.73;2.78;;;6.40;99.90;;;;;;5073384;28;20159;-70
2022/04/05 05:36:37;;;;;;;15.05;2.53;;;6.50;99.90;;;;;;5076757;28;20109;-70
2022/04/05 05:39:02;;;;;;;19.15;3.15;;;6.50;99.90;;;;;;5064179;28;20125;-70
2022/04/05 05:41:28;;;;;;;19.15;2.58;;;6.50;99.90;;;;;;5068773;28;20130;-70
2022/04/05 05:43:54;;;;;;;21.85;2.92;;;6.50;99.90;;;;;;5069067;28;20515;-70
2022/04/05 05:46:20;;;;;;;14.20;2.25;;;6.50;99.90;;;;;;5067919;28;20048;-70
2022/04/05 05:48:46;;;;;;;15.20;2.45;;;6.50;99.90;;;;;;5063411;28;20040;-70
2022/04/05 05:51:11;;;;;;;16.75;2.47;;;6.50;99.90;;;;;;5059405;28;20082;-70
2022/04/05 05:53:37;;;;;;;13.15;2.30;;;7.00;99.90;;;;;;5039658;28;20110;-70
2022/04/05 05:56:03;;;;;;;24.90;2.92;;;6.60;99.90;;;;;;5032214;28;20083;-70
2022/04/05 05:58:29;;;;;;;21.92;2.33;;;6.60;99.90;;;;;;5059389;28;20044;-71
2022/04/05 06:00:55;;;;;;;19.65;2.70;;;6.70;99.90;;;;;;5061380;28;20047;-70
2022/04/05 06:03:22;;;;;;;20.13;2.17;;;6.70;99.90;;;;;;5053210;28;20044;-70
2022/04/05 06:05:47;;;;;;;15.15;2.25;;;6.70;99.90;;;;;;5072516;28;20446;-71
2022/04/05 06:08:14;;;;;;;19.67;2.17;;;6.70;99.90;;;;;;5080158;28;20048;-71
2022/04/05 06:10:40;;;;;;;12.98;1.70;;;6.70;99.90;;;;;;5073497;28;20058;-71
2022/04/05 06:13:06;;;;;;;17.67;2.25;;;6.70;99.90;;;;;;5053589;28;20333;-71
2022/04/05 06:15:32;;;;;;;15.10;1.77;;;6.70;99.90;;;;;;5071772;28;20044;-71
2022/04/05 06:17:58;;;;;;;19.48;2.10;;;6.80;99.90;;;;;;5064596;28;20035;-70
2022/04/05 06:20:24;;;;;;;17.65;2.08;;;6.80;99.90;;;;;;5060458;28;20405;-70
2022/04/05 06:22:52;;;;;;;19.67;2.97;;;6.90;99.90;;;;;;5049849;28;20501;-70
2022/04/05 06:25:26;;;;;;;15.70;2.40;;;6.90;99.90;;;;;;5050472;28;20382;-70
2022/04/05 06:27:53;;;;;;;14.93;3.13;;;6.90;99.90;;;;;;5054558;28;20043;-70
2022/04/05 06:30:19;;;;;;;20.48;3.28;;;6.90;99.90;;;;;;5074719;28;20047;-70
2022/04/05 06:32:45;;;;;;;14.00;3.20;;;7.30;99.90;;;;;;5081943;28;20087;-71
2022/04/05 06:35:12;;;;;;;13.07;2.47;;;7.00;99.90;;;;;;5077311;28;20469;-70
2022/04/05 06:37:38;;;;;;;16.35;2.85;;;7.00;99.90;;;;;;5080282;28;20048;-70
2022/04/05 06:40:07;;;;;;;17.55;3.15;;;7.10;99.90;;;;;;5075401;28;20047;-70
2022/04/05 06:42:41;;;;;;;15.30;2.70;;;7.10;99.90;;;;;;5081666;28;20075;-70
2022/04/05 06:45:13;;;;;;;13.18;2.47;;;7.20;99.90;;;;;;5063823;28;20127;-70
2022/04/05 06:47:39;;;;;;;8.98;2.20;;;7.20;99.90;;;;;;5059621;28;20045;-70
2022/04/05 06:50:07;;;;;;;9.60;2.20;;;7.30;99.90;;;;;;5063293;28;20036;-70
2022/04/05 06:52:37;;;;;;;9.20;2.22;;;7.40;99.90;;;;;;5063321;28;20120;-70
2022/04/05 06:55:04;;;;;;;13.00;2.45;;;7.50;99.90;;;;;;5064823;28;20072;-70
2022/04/05 06:57:30;;;;;;;14.48;2.10;;;7.70;99.90;;;;;;5075203;28;20148;-71
2022/04/05 06:59:56;;;;;;;13.98;2.00;;;7.70;99.90;;;;;;5058634;28;20156;-70
2022/04/05 07:02:22;;;;;;;16.10;2.17;;;7.70;99.90;;;;;;5072335;28;20036;-70
2022/04/05 07:04:48;;;;;;;18.67;2.20;;;7.70;99.90;;;;;;5078361;28;20629;-70
2022/04/05 07:07:14;;;;;;;15.75;2.35;;;7.60;99.90;;;;;;5077907;28;20728;-70
2022/04/05 07:09:43;;;;;;;12.55;2.35;;;7.60;99.90;;;;;;5075052;28;20068;-70
2022/04/05 07:12:08;;;;;;;14.70;2.10;;;7.60;99.90;;;;;;5069159;28;20048;-70
2022/04/05 07:14:34;;;;;;;8.98;2.13;;;7.60;99.90;;;;;;5049816;28;20048;-70
2022/04/05 07:17:00;;;;;;;13.75;2.30;;;7.60;99.90;;;;;;5066573;28;20540;-70
2022/04/05 07:19:26;;;;;;;10.10;2.08;;;7.60;99.90;;;;;;5065425;28;20044;-70
2022/04/05 07:21:52;;;;;;;13.43;2.25;;;7.50;99.90;;;;;;5059085;28;20112;-71
2022/04/05 07:24:18;;;;;;;13.32;2.30;;;7.50;99.90;;;;;;5079656;28;20052;-70
2022/04/05 07:26:44;;;;;;;14.15;2.20;;;7.60;99.90;;;;;;5081664;28;20059;-71
2022/04/05 07:29:10;;;;;;;14.25;2.75;;;7.60;99.90;;;;;;5077463;28;20101;-69
2022/04/05 07:31:36;;;;;;;13.10;2.40;;;7.60;99.90;;;;;;5073036;28;20508;-69
2022/04/05 07:34:03;;;;;;;18.02;2.75;;;7.60;99.90;;;;;;5062924;28;20033;-70
2022/04/05 07:36:30;;;;;;;15.70;2.42;;;7.60;99.90;;;;;;5060997;28;20075;-69
2022/04/05 07:38:55;;;;;;;14.18;3.08;;;7.70;99.90;;;;;;5084005;28;20031;-70
2022/04/05 07:41:21;;;;;;;11.60;2.00;;;7.60;99.90;;;;;;5080408;28;20461;-70
2022/04/05 07:43:47;;;;;;;11.10;2.15;;;7.80;99.90;;;;;;5085671;28;20044;-70
2022/04/05 07:46:13;;;;;;;12.02;2.20;;;7.70;99.90;;;;;;5079063;28;20051;-70
2022/04/05 07:48:39;;;;;;;9.75;1.75;;;7.60;99.90;;;;;;5082453;28;20044;-70
2022/04/05 07:51:08;;;;;;;13.82;2.67;;;7.60;99.90;;;;;;5071078;28;20055;-70
2022/04/05 07:53:37;;;;;;;19.25;3.13;;;7.60;99.90;;;;;;5071971;28;20040;-70
2022/04/05 07:56:03;;;;;;;10.90;1.92;;;7.60;99.90;;;;;;5068049;28;20044;-70
2022/04/05 07:58:28;;;;;;;14.38;2.38;;;7.60;99.90;;;;;;5081820;28;20044;-70
2022/04/05 08:00:54;;;;;;;10.80;2.10;;;7.60;99.90;;;;;;5042888;28;20528;-70
2022/04/05 08:03:21;;;;;;;7.47;2.17;;;7.70;99.90;;;;;;5062992;28;20127;-70
2022/04/05 08:05:47;;;;;;;9.00;1.90;;;7.80;99.90;;;;;;5061852;28;20047;-70
2022/04/05 08:08:14;;;;;;;11.00;1.77;;;7.80;99.90;;;;;;5062340;28;20455;-70
2022/04/05 08:10:39;;;;;;;9.20;1.77;;;7.80;99.90;;;;;;5058446;28;20072;-70
2022/04/05 08:13:05;;;;;;;10.63;1.83;;;7.90;99.90;;;;;;5063832;28;20150;-69
2022/04/05 08:15:31;;;;;;;12.73;1.92;;;8.00;99.90;;;;;;5074435;28;20139;-70
2022/04/05 08:17:57;;;;;;;10.30;1.80;;;8.00;99.90;;;;;;5056377;28;20044;-70
2022/04/05 08:20:23;;;;;;;13.80;2.17;;;8.10;99.90;;;;;;5075664;28;20044;-70
2022/04/05 08:22:50;;;;;;;9.10;1.88;;;8.10;99.90;;;;;;5068962;28;20405;-71
2022/04/05 08:25:17;;;;;;;12.65;2.13;;;8.20;99.90;;;;;;5063114;28;20059;-70
2022/04/05 08:27:45;;;;;;;10.07;2.00;;;8.20;99.90;;;;;;5070391;28;20040;-70
2022/04/05 08:30:15;;;;;;;13.10;1.92;;;8.20;99.90;;;;;;5085379;28;20074;-70
2022/04/05 08:32:43;;;;;;;8.75;1.80;;;8.30;99.90;;;;;;5064943;28;20061;-70
2022/04/05 08:35:12;;;;;;;10.23;1.65;;;8.30;99.90;;;;;;5082688;28;20054;-70
2022/04/05 08:37:39;;;;;;;14.40;2.17;;;8.40;99.90;;;;;;5075284;28;20050;-70
2022/04/05 08:40:07;;;;;;;4.10;1.20;;;8.50;99.90;;;;;;5062580;28;20086;-70
2022/04/05 08:42:34;;;;;;;13.80;2.20;;;8.50;99.90;;;;;;5058896;28;20036;-71
2022/04/05 08:45:04;;;;;;;5.22;1.30;;;8.50;99.90;;;;;;5063551;28;20040;-70
2022/04/05 08:47:31;;;;;;;6.50;1.30;;;8.60;99.90;;;;;;5072842;28;20549;-70
2022/04/05 08:49:57;;;;;;;7.35;1.35;;;8.60;99.90;;;;;;5060997;28;20539;-70
2022/04/05 08:52:23;;;;;;;6.85;1.35;;;8.70;99.90;;;;;;5079719;28;20452;-70
2022/04/05 08:54:49;;;;;;;6.45;1.25;;;8.70;99.90;;;;;;5075879;28;20048;-71
2022/04/05 08:57:15;;;;;;;7.57;1.30;;;8.80;99.90;;;;;;5083442;28;20048;-71
2022/04/05 08:59:40;;;;;;;9.25;1.60;;;8.80;99.90;;;;;;5079550;28;20117;-71
2022/04/05 09:02:07;;;;;;;7.80;1.52;;;8.90;99.90;;;;;;5076603;28;20192;-71
2022/04/05 09:04:34;;;;;;;8.88;1.45;;;8.90;99.90;;;;;;5081597;28;20048;-71
2022/04/05 09:07:20;;;;;;;11.77;1.90;;;8.90;99.90;;;;;;5071010;28;20119;-71
2022/04/05 09:09:46;;;;;;;5.90;1.58;;;8.90;99.90;;;;;;5045314;28;20366;-70
2022/04/05 09:12:18;;;;;;;11.55;2.00;;;8.90;99.90;;;;;;5074947;28;20396;-71
2022/04/05 09:14:43;;;;;;;6.60;1.45;;;8.90;99.90;;;;;;5079181;28;20054;-71
2022/04/05 09:17:14;;;;;;;7.03;1.40;;;8.80;99.90;;;;;;5078075;28;20048;-70
2022/04/05 09:19:42;;;;;;;7.25;1.48;;;8.80;99.90;;;;;;5068561;28;20056;-71
2022/04/05 09:22:09;;;;;;;8.05;1.60;;;8.90;99.90;;;;;;5061541;28;20107;-71
2022/04/05 09:24:39;;;;;;;9.30;1.80;;;8.80;99.90;;;;;;5079870;28;20454;-70
2022/04/05 09:27:06;;;;;;;7.38;2.03;;;8.80;99.90;;;;;;5079738;28;20048;-71
2022/04/05 09:29:41;;;;;;;7.03;1.45;;;8.80;99.90;;;;;;5064583;28;20053;-78
2022/04/05 09:32:07;;;;;;;9.85;1.70;;;8.90;99.90;;;;;;5080555;28;20490;-77
2022/04/05 09:34:46;;;;;;;5.90;1.40;;;8.90;99.90;;;;;;5058566;28;20043;-77
2022/04/05 09:37:13;;;;;;;11.07;1.95;;;8.90;99.90;;;;;;5081498;28;20036;-76
2022/04/05 09:39:38;;;;;;;6.70;1.88;;;9.00;99.90;;;;;;5080514;28;20423;-76
2022/04/05 09:42:08;;;;;;;8.88;1.83;;;9.00;99.90;;;;;;5075600;28;20050;-77
2022/04/05 09:44:40;;;;;;;12.20;1.98;;;9.00;99.90;;;;;;5057841;28;20048;-77
2022/04/05 09:47:17;;;;;;;7.80;2.03;;;8.90;99.90;;;;;;5077603;28;20122;-77
2022/04/05 09:49:45;;;;;;;5.25;1.70;;;8.90;99.90;;;;;;5076541;28;20381;-76
2022/04/05 09:52:30;;;;;;;7.18;1.65;;;8.90;99.90;;;;;;5082399;28;20048;-77
2022/04/05 09:55:17;;;;;;;8.55;1.95;;;8.80;99.90;;;;;;5064699;28;20056;-77
2022/04/05 09:57:43;;;;;;;6.22;1.52;;;8.80;99.90;;;;;;5077835;28;20622;-76
2022/04/05 10:00:11;;;;;;;9.35;1.80;;;8.80;99.90;;;;;;5078386;28;20036;-76
2022/04/05 10:03:00;;;;;;;6.28;1.58;;;8.80;99.90;;;;;;5048273;28;20450;-70
2022/04/05 10:05:27;;;;;;;5.55;1.50;;;8.80;99.90;;;;;;5048973;28;20040;-70
2022/04/05 10:07:54;;;;;;;8.02;1.80;;;8.90;99.90;;;;;;5049130;28;20055;-70
2022/04/05 10:10:20;;;;;;;8.93;1.70;;;8.80;99.90;;;;;;5066181;28;20041;-70
2022/04/05 10:12:47;;;;;;;6.43;1.65;;;8.90;99.90;;;;;;5066609;28;20382;-70
2022/04/05 10:15:13;;;;;;;7.38;1.88;;;8.90;99.90;;;;;;5067833;28;20045;-70
2022/04/05 10:17:45;;;;;;;3.78;1.60;;;9.00;99.90;;;;;;5065823;28;20036;-70
2022/04/05 10:20:15;;;;;;;;;;;9.10;99.90;;;;;;5039823;28;20491;-70
2022/04/05 10:22:42;;;;;;;5.57;1.40;;;9.20;99.90;;;;;;5061783;28;19935;-70
2022/04/05 10:25:08;;;;;;;5.47;1.35;;;9.30;99.90;;;;;;5064958;28;20037;-70
2022/04/05 10:27:35;;;;;;;2.30;1.02;;;9.40;99.90;;;;;;5058608;28;20036;-70
2022/04/05 10:30:33;;;;;;;2.47;1.02;;;9.40;99.90;;;;;;5044503;28;20404;-70
2022/04/05 10:33:03;;;;;;;4.32;1.35;;;9.50;99.90;;;;;;5052578;28;20134;-70
2022/04/05 10:35:31;;;;;;;4.60;1.10;;;9.50;99.90;;;;;;5064857;28;20041;-70
2022/04/05 10:38:15;;;;;;;2.75;1.20;;;9.60;99.90;;;;;;5063070;28;20047;-70
2022/04/05 10:40:41;;;;;;;2.97;1.08;;;9.70;99.90;;;;;;5059989;28;20381;-70
2022/04/05 10:43:18;;;;;;;4.20;1.20;;;9.70;99.90;;;;;;5054278;28;20235;-70
2022/04/05 10:45:45;;;;;;;4.07;1.30;;;9.80;99.90;;;;;;5074478;28;20517;-70
2022/04/05 10:48:13;;;;;;;4.80;1.20;;;9.90;99.90;;;;;;5068113;28;20040;-70
2022/04/05 10:50:44;;;;;;;3.17;1.10;;;9.90;99.90;;;;;;5077311;28;20101;-70
2022/04/05 10:53:12;;;;;;;6.53;1.20;;;9.90;99.90;;;;;;5064809;28;20411;-70
2022/04/05 10:56:03;;;;;;;2.72;0.93;;;10.10;99.90;;;;;;5074040;28;20135;-70
2022/04/05 10:58:30;;;;;;;2.10;0.80;;;10.10;99.90;;;;;;5050000;28;20444;-70
2022/04/05 11:01:22;;;;;;;2.47;0.80;;;10.10;99.90;;;;;;5061574;28;20316;-70
2022/04/05 11:04:20;;;;;;;2.10;0.82;;;10.10;99.90;;;;;;5079584;28;20369;-71
2022/04/05 11:07:01;;;;;;;2.15;1.02;;;10.20;99.90;;;;;;5074499;28;20059;-71
2022/04/05 11:09:41;;;;;;;1.92;0.98;;;10.20;99.90;;;;;;5074131;28;20097;-71
2022/04/05 11:12:23;;;;;;;1.98;1.05;;;10.20;99.90;;;;;;5064018;28;20044;-71
2022/04/05 11:15:01;;;;;;;3.10;1.15;;;10.20;99.90;;;;;;5078704;28;20040;-71
2022/04/05 11:17:28;;;;;;;3.30;1.50;;;10.30;99.90;;;;;;5078194;28;20036;-71
2022/04/05 11:19:57;;;;;;;2.38;1.17;;;10.60;99.90;;;;;;5081007;28;20040;-71
2022/04/05 11:22:25;;;;;;;3.67;1.30;;;10.70;99.90;;;;;;5082150;28;20072;-71
2022/04/05 11:25:27;;;;;;;2.85;1.30;;;10.80;99.90;;;;;;5066397;28;20044;-71
2022/04/05 11:27:53;;;;;;;2.75;1.38;;;10.60;99.90;;;;;;5082255;28;20047;-71
2022/04/05 11:30:27;;;;;;;4.25;1.30;;;10.60;99.90;;;;;;5075303;28;20048;-71
2022/04/05 11:33:15;;;;;;;2.17;1.10;;;10.60;99.90;;;;;;5079157;28;20523;-72
2022/04/05 11:35:52;;;;;;;4.05;1.45;;;10.60;99.90;;;;;;5060032;28;20104;-71
2022/04/05 11:38:18;;;;;;;2.25;1.20;;;10.70;99.90;;;;;;5043573;28;20541;-70
2022/04/05 11:40:50;;;;;;;3.35;1.40;;;10.70;99.90;;;;;;5067272;28;20115;-71
2022/04/05 11:43:27;;;;;;;3.50;1.50;;;10.80;99.90;;;;;;5077446;28;20233;-71
2022/04/05 11:45:55;;;;;;;3.10;1.10;;;10.80;99.90;;;;;;5082129;28;20036;-71
2022/04/05 11:48:23;;;;;;;2.95;1.27;;;10.70;99.90;;;;;;5076243;28;20038;-71
2022/04/05 11:50:50;;;;;;;2.97;1.15;;;10.60;99.90;;;;;;5076092;28;20099;-72
2022/04/05 11:53:24;;;;;;;3.35;1.40;;;10.60;99.90;;;;;;5069946;28;20051;-71
2022/04/05 11:56:11;;;;;;;3.92;1.50;;;10.60;99.90;;;;;;5062433;28;20127;-71
2022/04/05 11:58:42;;;;;;;2.80;1.35;;;10.60;99.90;;;;;;5059697;28;20051;-71
2022/04/05 12:01:10;;;;;;;3.88;2.03;;;10.60;99.90;;;;;;5050836;28;20048;-71
2022/04/05 12:03:49;;;;;;;4.10;1.67;;;10.60;99.90;;;;;;5077893;28;20048;-72
2022/04/05 12:06:29;;;;;;;3.92;1.58;;;10.70;99.90;;;;;;5081462;28;20055;-72
2022/04/05 12:08:57;;;;;;;4.03;1.80;;;10.70;99.90;;;;;;5067186;28;20110;-72
2022/04/05 12:11:25;;;;;;;4.72;1.85;;;10.70;99.90;;;;;;5076260;28;20067;-72
2022/04/05 12:14:01;;;;;;;6.32;1.90;;;10.70;99.90;;;;;;5078846;28;20036;-71
2022/04/05 12:16:29;;;;;;;4.15;1.90;;;10.80;99.90;;;;;;5077879;28;20044;-71
2022/04/05 12:18:55;;;;;;;4.78;2.10;;;10.80;99.90;;;;;;5060454;28;20408;-71
2022/04/05 12:21:24;;;;;;;4.80;2.00;;;10.90;99.90;;;;;;5079487;28;20077;-72
2022/04/05 12:23:50;;;;;;;5.25;2.25;;;11.00;99.90;;;;;;5081822;28;20079;-71
2022/04/05 12:26:23;;;;;;;4.30;1.98;;;11.00;99.90;;;;;;5080015;28;20429;-71
2022/04/05 12:28:57;;;;;;;4.88;2.33;;;11.10;99.90;;;;;;5080043;28;20049;-71
2022/04/05 12:31:28;;;;;;;4.30;2.08;;;11.20;99.90;;;;;;5082762;28;20119;-71
2022/04/05 12:34:20;;;;;;;5.68;2.78;;;11.10;99.90;;;;;;5071492;28;20465;-71
2022/04/05 12:36:53;;;;;;;4.88;2.50;;;11.00;99.90;;;;;;5070791;28;20055;-72
2022/04/05 12:39:24;;;;;;;4.95;2.75;;;10.90;99.90;;;;;;5081116;28;20123;-71
2022/04/05 12:41:56;;;;;;;8.20;2.55;;;10.80;99.90;;;;;;5077212;28;20036;-71
2022/04/05 12:44:23;;;;;;;4.85;2.47;;;10.80;99.90;;;;;;5080282;28;20041;-73
2022/04/05 12:46:51;;;;;;;4.85;2.35;;;10.90;99.90;;;;;;5078801;28;20041;-71
2022/04/05 12:49:35;;;;;;;5.95;2.78;;;10.60;99.90;;;;;;5075596;28;20087;-72
2022/04/05 12:52:13;;;;;;;5.28;2.75;;;10.20;99.90;;;;;;5072318;28;20155;-79
2022/04/05 12:54:46;;;;;;;7.10;3.58;;;10.50;99.90;;;;;;5071122;28;20391;-78
2022/04/05 12:57:18;;;;;;;6.32;3.47;;;10.40;99.90;;;;;;5061863;28;20051;-79